Time;durP1;ratioP1;P1;durP2;ratioP2;P2;SDS_P1;SDS_P2;PMS_P1;PMS_P2;Temp;Humidity;BMP_temperature;BMP_pressure;BME280_temperature;BME280_humidity;BME280_pressure;Samples;Min_cycle;Max_cycle;Signal;HPM_P1;HPM_P2
2022/04/28 00:00:07;;;;;;;1.63;1.30;;;10.00;99.90;;;;;;5038878;28;20060;-80
2022/04/28 00:02:33;;;;;;;5.68;2.78;;;10.00;99.90;;;;;;5023029;28;20045;-80
2022/04/28 00:05:00;;;;;;;6.13;2.58;;;10.00;99.90;;;;;;5038729;28;20141;-79
2022/04/28 00:07:26;;;;;;;1.75;1.65;;;10.00;99.90;;;;;;5041394;28;20053;-80
2022/04/28 00:09:52;;;;;;;5.07;1.40;;;10.00;99.90;;;;;;5040930;28;20045;-80
2022/04/28 00:12:17;;;;;;;1.42;1.33;;;10.00;99.90;;;;;;5040952;28;20128;-80
2022/04/28 00:14:43;;;;;;;4.97;1.73;;;10.00;99.90;;;;;;5041278;28;20048;-80
2022/04/28 00:17:09;;;;;;;1.25;1.17;;;10.00;99.90;;;;;;5039487;28;20721;-80
2022/04/28 00:19:35;;;;;;;6.20;1.90;;;9.90;99.90;;;;;;5039501;28;20052;-80
2022/04/28 00:22:01;;;;;;;1.80;1.52;;;9.90;99.90;;;;;;5039931;28;20076;-80
2022/04/28 00:24:26;;;;;;;2.33;1.52;;;9.90;99.90;;;;;;5041318;28;20383;-80
2022/04/28 00:26:52;;;;;;;6.13;1.75;;;9.90;99.90;;;;;;5023227;28;20713;-80
2022/04/28 00:29:18;;;;;;;2.47;1.20;;;9.90;99.90;;;;;;5040785;28;20041;-80
2022/04/28 00:31:44;;;;;;;5.85;1.55;;;9.90;99.90;;;;;;5039523;28;20052;-80
2022/04/28 00:34:09;;;;;;;7.97;1.88;;;9.80;99.90;;;;;;5039254;28;20052;-80
2022/04/28 00:36:35;;;;;;;1.30;1.20;;;9.80;99.90;;;;;;5039884;28;20487;-80
2022/04/28 00:39:00;;;;;;;0.77;0.77;;;9.80;99.90;;;;;;5040282;28;20037;-80
2022/04/28 00:41:26;;;;;;;6.07;1.65;;;9.80;99.90;;;;;;5039770;28;20052;-81
2022/04/28 00:43:53;;;;;;;5.15;1.80;;;9.80;99.90;;;;;;5039591;28;20713;-80
2022/04/28 00:46:20;;;;;;;1.50;1.40;;;9.80;99.90;;;;;;5040144;28;20514;-80
2022/04/28 00:51:31;;;;;;;5.57;1.92;;;9.80;99.90;;;;;;5038493;28;20060;-80
2022/04/28 00:53:59;;;;;;;1.90;1.80;;;9.80;99.90;;;;;;5040966;28;20076;-80
2022/04/28 00:56:26;;;;;;;1.30;0.98;;;9.80;99.90;;;;;;5040189;28;20543;-80
2022/04/28 00:58:53;;;;;;;6.22;1.15;;;9.80;99.90;;;;;;5040531;28;20594;-80
2022/04/28 01:01:18;;;;;;;1.90;1.42;;;9.70;99.90;;;;;;5038448;28;20618;-81
2022/04/28 01:03:46;;;;;;;3.97;1.48;;;9.70;99.90;;;;;;5040655;28;20136;-80
2022/04/28 01:06:12;;;;;;;2.47;1.13;;;9.70;99.90;;;;;;5038627;28;20649;-81
2022/04/28 01:08:40;;;;;;;2.75;1.63;;;9.70;99.90;;;;;;5038941;28;20045;-81
2022/04/28 01:11:06;;;;;;;1.42;1.33;;;9.70;99.90;;;;;;5081644;22;20107;-80
2022/04/28 01:13:32;;;;;;;7.78;1.00;;;9.70;99.90;;;;;;5125150;27;20051;-80
2022/04/28 01:15:57;;;;;;;2.20;1.55;;;9.70;99.90;;;;;;5125939;27;20110;-80
2022/04/28 01:18:23;;;;;;;1.45;1.17;;;9.60;99.90;;;;;;5125184;27;20074;-79
2022/04/28 01:20:49;;;;;;;12.43;2.10;;;9.70;99.90;;;;;;5124293;27;20385;-80
2022/04/28 01:23:15;;;;;;;3.53;2.25;;;9.70;99.90;;;;;;5124861;27;20035;-80
2022/04/28 01:25:40;;;;;;;1.08;0.80;;;9.70;99.90;;;;;;5124936;27;20515;-80
2022/04/28 01:28:06;;;;;;;4.30;1.40;;;9.60;99.90;;;;;;5106489;27;20043;-79
2022/04/28 01:30:36;;;;;;;7.85;1.88;;;9.60;99.90;;;;;;5124965;27;20047;-80
2022/04/28 01:33:01;;;;;;;3.83;1.33;;;9.60;99.90;;;;;;5124580;27;20039;-79
2022/04/28 01:35:27;;;;;;;2.20;1.42;;;9.50;99.90;;;;;;5123174;27;20035;-79
2022/04/28 01:37:52;;;;;;;3.70;1.60;;;9.50;99.90;;;;;;5124616;27;20042;-80
2022/04/28 01:40:20;;;;;;;4.93;1.92;;;9.50;99.90;;;;;;5124518;27;20045;-79
2022/04/28 01:42:47;;;;;;;4.03;1.58;;;9.50;99.90;;;;;;5124735;27;20122;-79
2022/04/28 01:45:14;;;;;;;6.30;1.65;;;9.50;99.90;;;;;;5124394;27;20133;-79
2022/04/28 01:47:40;;;;;;;3.83;1.27;;;9.40;99.90;;;;;;5124630;27;20485;-79
2022/04/28 01:50:08;;;;;;;1.17;1.08;;;9.40;99.90;;;;;;5123262;27;20043;-80
2022/04/28 01:55:35;;;;;;;6.38;2.15;;;9.40;99.90;;;;;;5040590;28;20052;-80
2022/04/28 01:58:00;;;;;;;2.55;2.05;;;9.30;99.90;;;;;;5106824;27;20051;-77
2022/04/28 02:00:26;;;;;;;1.38;1.17;;;9.40;99.90;;;;;;5124833;27;20046;-80
2022/04/28 02:02:52;;;;;;;1.48;1.20;;;9.40;99.90;;;;;;5106273;27;20485;-79
2022/04/28 02:05:17;;;;;;;0.65;0.65;;;9.40;99.90;;;;;;5123413;27;20043;-80
2022/04/28 02:07:44;;;;;;;1.67;1.20;;;9.40;99.90;;;;;;5123861;27;20067;-80
2022/04/28 02:10:10;;;;;;;1.83;1.45;;;9.40;99.90;;;;;;5124081;27;20444;-80
2022/04/28 02:12:35;;;;;;;4.63;1.30;;;9.40;99.90;;;;;;5105454;27;20051;-79
2022/04/28 02:15:01;;;;;;;0.98;0.75;;;9.40;99.90;;;;;;5105944;27;20130;-79
2022/04/28 02:17:28;;;;;;;4.18;1.60;;;9.40;99.90;;;;;;5106052;27;20038;-79
2022/04/28 02:19:54;;;;;;;15.43;1.23;;;9.40;99.90;;;;;;5123249;27;20356;-80
2022/04/28 02:22:21;;;;;;;0.93;0.88;;;9.30;99.90;;;;;;5122545;27;20043;-80
2022/04/28 02:24:50;;;;;;;1.40;1.30;;;9.40;99.90;;;;;;5123843;27;20054;-79
2022/04/28 02:27:16;;;;;;;1.85;1.25;;;9.40;99.90;;;;;;5123638;27;20151;-80
2022/04/28 02:29:42;;;;;;;2.83;1.33;;;9.40;99.90;;;;;;5123886;27;20063;-80
2022/04/28 02:32:07;;;;;;;3.63;1.70;;;9.40;99.90;;;;;;5123254;27;20516;-79
2022/04/28 02:34:34;;;;;;;3.33;1.80;;;9.40;99.90;;;;;;5122925;27;20499;-79
2022/04/28 02:37:01;;;;;;;5.38;1.30;;;9.40;99.90;;;;;;5123456;27;20039;-76
2022/04/28 02:39:26;;;;;;;1.67;0.95;;;9.40;99.90;;;;;;5124109;27;20046;-80
2022/04/28 02:41:53;;;;;;;1.35;1.35;;;9.40;99.90;;;;;;5123645;27;20035;-79
2022/04/28 02:44:19;;;;;;;1.60;0.80;;;9.30;99.90;;;;;;5105097;27;20051;-79
2022/04/28 02:46:45;;;;;;;1.50;1.35;;;9.30;99.90;;;;;;5123454;27;20046;-80
2022/04/28 02:49:12;;;;;;;2.08;1.80;;;9.40;99.90;;;;;;5123280;27;20053;-79
2022/04/28 02:51:37;;;;;;;5.97;2.47;;;9.30;99.90;;;;;;5122321;27;20105;-79
2022/04/28 02:54:04;;;;;;;1.88;1.13;;;9.30;99.90;;;;;;5123235;27;20035;-80
2022/04/28 02:56:30;;;;;;;1.20;0.98;;;9.30;99.90;;;;;;5123637;27;20043;-80
2022/04/28 02:58:55;;;;;;;10.10;1.70;;;9.40;99.90;;;;;;5123561;27;20047;-80
2022/04/28 03:01:22;;;;;;;1.25;1.15;;;9.40;99.90;;;;;;5123032;27;20078;-79
2022/04/28 03:03:48;;;;;;;2.20;1.85;;;9.30;99.90;;;;;;5123040;27;20035;-79
2022/04/28 03:11:42;;;;;;;1.67;1.58;;;9.30;99.90;;;;;;5104257;27;20338;-80
2022/04/28 03:14:09;;;;;;;1.33;1.23;;;9.30;99.90;;;;;;5104432;27;20078;-80
2022/04/28 03:16:35;;;;;;;2.33;1.58;;;9.30;99.90;;;;;;5122949;27;20558;-80
2022/04/28 03:19:01;;;;;;;4.95;1.40;;;9.30;99.90;;;;;;5122691;27;20047;-80
2022/04/28 03:21:27;;;;;;;3.13;1.65;;;9.40;99.90;;;;;;5122607;27;20575;-80
2022/04/28 03:23:53;;;;;;;4.07;1.75;;;9.30;99.90;;;;;;5122872;27;20091;-80
2022/04/28 03:26:18;;;;;;;5.70;1.75;;;9.30;99.90;;;;;;5121001;27;20070;-80
2022/04/28 03:28:44;;;;;;;14.65;2.65;;;9.30;99.90;;;;;;5122808;27;20039;-80
2022/04/28 03:31:10;;;;;;;8.60;2.67;;;9.30;99.90;;;;;;5103918;27;20693;-80
2022/04/28 03:33:35;;;;;;;3.60;1.98;;;9.30;99.90;;;;;;5122824;27;20539;-80
2022/04/28 03:36:01;;;;;;;1.58;1.48;;;9.30;99.90;;;;;;5121670;27;20047;-79
2022/04/28 03:38:26;;;;;;;4.53;1.58;;;9.40;99.90;;;;;;5121866;27;20159;-79
2022/04/28 03:40:52;;;;;;;3.67;1.88;;;9.30;99.90;;;;;;5121128;27;20042;-80
2022/04/28 03:43:18;;;;;;;1.27;1.15;;;9.30;99.90;;;;;;5122111;27;20043;-79
2022/04/28 03:45:43;;;;;;;3.85;1.67;;;9.30;99.90;;;;;;5122345;27;20051;-80
2022/04/28 03:48:09;;;;;;;2.05;1.80;;;9.30;99.90;;;;;;5122456;27;20050;-80
2022/04/28 03:50:39;;;;;;;5.65;1.42;;;9.40;99.90;;;;;;5121377;27;20039;-79
2022/04/28 03:53:05;;;;;;;1.85;1.75;;;9.40;99.90;;;;;;5103904;27;20043;-80
2022/04/28 03:55:31;;;;;;;6.05;2.00;;;9.40;99.90;;;;;;5122318;27;20074;-80
2022/04/28 03:57:57;;;;;;;4.88;2.22;;;9.30;99.90;;;;;;5104357;27;20429;-80
2022/04/28 04:00:23;;;;;;;2.03;1.83;;;9.40;99.90;;;;;;5103534;27;20043;-80
2022/04/28 04:02:49;;;;;;;8.95;1.85;;;9.40;99.90;;;;;;5103459;27;20039;-80
2022/04/28 04:05:15;;;;;;;1.58;0.80;;;9.30;99.90;;;;;;5120956;27;20560;-79
2022/04/28 04:07:42;;;;;;;12.40;1.70;;;9.40;99.90;;;;;;5103657;27;20122;-80
2022/04/28 04:10:09;;;;;;;2.35;2.08;;;9.40;99.90;;;;;;5121421;27;20047;-80
2022/04/28 04:12:35;;;;;;;1.55;1.45;;;9.40;99.90;;;;;;5121553;27;20047;-79
2022/04/28 04:15:01;;;;;;;1.92;1.83;;;9.40;99.90;;;;;;5103633;28;20370;-80
2022/04/28 04:17:27;;;;;;;7.22;2.33;;;9.40;99.90;;;;;;5122679;28;20071;-79
2022/04/28 04:19:52;;;;;;;7.70;2.33;;;9.40;99.90;;;;;;5121556;28;20040;-79
2022/04/28 04:22:18;;;;;;;6.13;1.27;;;9.40;99.90;;;;;;5121802;27;20039;-80
2022/04/28 04:24:43;;;;;;;3.30;1.88;;;9.40;99.90;;;;;;5103558;28;20066;-80
2022/04/28 04:27:09;;;;;;;6.32;2.63;;;9.40;99.90;;;;;;5121697;27;20046;-79
2022/04/28 04:29:36;;;;;;;4.63;1.67;;;9.40;99.90;;;;;;5122149;28;20039;-80
2022/04/28 04:32:17;;;;;;;2.58;2.30;;;9.40;99.90;;;;;;5121698;28;20114;-79
2022/04/28 04:34:44;;;;;;;10.98;1.63;;;9.40;99.90;;;;;;5102615;28;20047;-80
2022/04/28 04:37:09;;;;;;;1.83;1.73;;;9.40;99.90;;;;;;5121767;28;20080;-80
2022/04/28 04:39:35;;;;;;;1.20;1.13;;;9.40;99.90;;;;;;5120386;27;20134;-80
2022/04/28 04:42:00;;;;;;;1.50;1.38;;;9.40;99.90;;;;;;5120929;27;20516;-80
2022/04/28 04:44:26;;;;;;;2.60;2.20;;;9.40;99.90;;;;;;5103400;28;20180;-80
2022/04/28 04:46:51;;;;;;;5.70;2.35;;;9.40;99.90;;;;;;5124369;27;20043;-80
2022/04/28 04:49:17;;;;;;;7.68;3.10;;;9.40;99.90;;;;;;5124585;27;20168;-80
2022/04/28 04:51:44;;;;;;;5.13;2.55;;;9.40;99.90;;;;;;5124846;27;20405;-80
2022/04/28 04:54:09;;;;;;;3.70;1.65;;;9.40;99.90;;;;;;5124833;27;20516;-80
2022/04/28 04:56:36;;;;;;;2.38;2.03;;;9.40;99.90;;;;;;5124887;27;20176;-80
2022/04/28 04:59:02;;;;;;;2.72;2.20;;;9.40;99.90;;;;;;5125192;27;20039;-79
2022/04/28 05:01:28;;;;;;;16.60;2.22;;;9.30;99.90;;;;;;5125987;27;20537;-77
2022/04/28 05:03:53;;;;;;;2.50;1.85;;;9.30;99.90;;;;;;5106948;27;20035;-82
2022/04/28 05:06:19;;;;;;;4.00;2.08;;;9.30;99.90;;;;;;5122851;27;20058;-77
2022/04/28 05:08:44;;;;;;;2.60;1.80;;;9.30;99.90;;;;;;5123842;27;20034;-78
2022/04/28 05:11:10;;;;;;;3.15;1.90;;;9.30;99.90;;;;;;5123009;27;20043;-78
2022/04/28 05:13:35;;;;;;;2.35;1.65;;;9.30;99.90;;;;;;5123476;27;20043;-84
2022/04/28 05:16:01;;;;;;;2.50;1.75;;;9.30;99.90;;;;;;5102880;27;20059;-81
2022/04/28 05:18:30;;;;;;;5.75;1.75;;;9.20;99.90;;;;;;5106785;27;20043;-85
2022/04/28 05:20:56;;;;;;;1.52;1.25;;;9.20;99.90;;;;;;5106567;27;20051;-84
2022/04/28 05:23:21;;;;;;;2.25;2.05;;;9.30;99.90;;;;;;5106044;27;20404;-80
2022/04/28 05:25:47;;;;;;;7.90;2.15;;;9.20;99.90;;;;;;5106479;27;20453;-81
2022/04/28 05:28:13;;;;;;;1.85;1.63;;;9.20;99.90;;;;;;5124968;27;20039;-80
2022/04/28 05:30:39;;;;;;;4.50;1.42;;;9.20;99.90;;;;;;5124533;27;20545;-81
2022/04/28 05:33:05;;;;;;;1.60;1.50;;;9.20;99.90;;;;;;5124378;27;20035;-81
2022/04/28 05:35:31;;;;;;;2.97;1.65;;;9.20;99.90;;;;;;5123884;27;20051;-78
2022/04/28 05:37:57;;;;;;;5.28;1.92;;;9.20;99.90;;;;;;5125234;27;20038;-80
2022/04/28 05:40:23;;;;;;;2.90;1.30;;;9.30;99.90;;;;;;5106014;27;20051;-80
2022/04/28 05:45:42;;;;;;;2.20;1.20;;;9.20;99.90;;;;;;5106318;27;20446;-80
2022/04/28 05:48:12;;;;;;;1.17;1.17;;;9.30;99.90;;;;;;5124487;27;20031;-81
2022/04/28 05:50:39;;;;;;;12.45;1.75;;;9.30;99.90;;;;;;5123923;27;20404;-81
2022/04/28 05:53:05;;;;;;;11.20;1.92;;;9.30;99.90;;;;;;5105870;27;20039;-81
2022/04/28 05:55:30;;;;;;;1.83;1.23;;;9.30;99.90;;;;;;5106659;27;20047;-76
2022/04/28 05:57:58;;;;;;;2.50;1.50;;;9.40;99.90;;;;;;5124316;27;20046;-81
2022/04/28 06:00:28;;;;;;;1.73;1.42;;;9.30;99.90;;;;;;5105230;27;20442;-80
2022/04/28 06:02:54;;;;;;;1.90;1.65;;;9.30;99.90;;;;;;5124197;27;20039;-81
2022/04/28 06:05:20;;;;;;;1.58;1.48;;;9.40;99.90;;;;;;5122696;27;20572;-80
2022/04/28 06:07:46;;;;;;;1.63;1.52;;;9.40;99.90;;;;;;5124572;27;20126;-80
2022/04/28 06:10:15;;;;;;;3.08;2.15;;;9.40;99.90;;;;;;5123850;27;20053;-81
2022/04/28 06:12:41;;;;;;;9.27;2.47;;;9.40;99.90;;;;;;5105305;27;20488;-81
2022/04/28 06:15:07;;;;;;;2.80;2.22;;;9.40;99.90;;;;;;5123922;27;20046;-81
2022/04/28 06:17:33;;;;;;;2.65;1.90;;;9.40;99.90;;;;;;5105372;27;20131;-81
2022/04/28 06:19:58;;;;;;;4.28;1.20;;;9.50;99.90;;;;;;5123240;27;20130;-81
2022/04/28 06:22:24;;;;;;;1.58;1.48;;;9.50;99.90;;;;;;5123861;27;20156;-81
2022/04/28 06:24:54;;;;;;;2.78;1.40;;;9.50;99.90;;;;;;5123742;27;20047;-80
2022/04/28 06:27:20;;;;;;;4.38;1.67;;;9.60;99.90;;;;;;5124019;27;20047;-81
2022/04/28 06:29:48;;;;;;;6.90;1.67;;;9.60;99.90;;;;;;5123401;27;20049;-81
2022/04/28 06:32:18;;;;;;;1.55;1.40;;;9.60;99.90;;;;;;5105421;27;20050;-80
2022/04/28 06:34:44;;;;;;;8.55;1.35;;;9.60;99.90;;;;;;5122769;27;20046;-82
2022/04/28 06:37:10;;;;;;;6.57;1.35;;;9.60;99.90;;;;;;5123062;27;20054;-82
2022/04/28 06:39:36;;;;;;;5.05;1.05;;;9.70;99.90;;;;;;5102908;27;20035;-82
2022/04/28 06:42:01;;;;;;;2.22;1.27;;;9.70;99.90;;;;;;5123272;27;20047;-80
2022/04/28 06:44:27;;;;;;;0.85;0.85;;;9.70;99.90;;;;;;5123805;27;20031;-82
2022/04/28 06:46:52;;;;;;;4.13;1.67;;;9.70;99.90;;;;;;5105001;27;20075;-84
2022/04/28 06:49:18;;;;;;;8.00;1.30;;;9.70;99.90;;;;;;5121401;27;20590;-84
2022/04/28 06:51:43;;;;;;;14.55;1.98;;;9.70;99.90;;;;;;5119782;27;20534;-84
2022/04/28 06:54:09;;;;;;;4.43;1.85;;;9.70;99.90;;;;;;5121563;27;20185;-85
2022/04/28 06:56:35;;;;;;;1.33;1.23;;;9.70;99.90;;;;;;5122510;27;20122;-84
2022/04/28 06:59:00;;;;;;;1.38;1.27;;;9.70;99.90;;;;;;5103511;27;20131;-85
2022/04/28 07:01:26;;;;;;;7.93;1.75;;;9.80;99.90;;;;;;5122322;27;20053;-84
2022/04/28 07:03:51;;;;;;;2.78;1.48;;;9.70;99.90;;;;;;5121322;27;20034;-85
2022/04/28 07:06:17;;;;;;;1.63;1.13;;;9.70;99.90;;;;;;5103094;27;20599;-85
2022/04/28 07:08:43;;;;;;;0.90;0.90;;;9.70;99.90;;;;;;5121497;27;20039;-85
2022/04/28 07:11:09;;;;;;;3.60;0.90;;;9.70;99.90;;;;;;5121523;27;20187;-85
2022/04/28 07:13:38;;;;;;;0.52;0.52;;;9.80;99.90;;;;;;5121689;27;20050;-85
2022/04/28 07:16:04;;;;;;;5.57;1.40;;;9.80;99.90;;;;;;5121542;27;20649;-85
2022/04/28 07:18:30;;;;;;;1.90;1.00;;;9.80;99.90;;;;;;5122050;27;20515;-85
2022/04/28 07:20:58;;;;;;;3.83;1.17;;;9.90;99.90;;;;;;5102819;27;20126;-85
2022/04/28 07:23:24;;;;;;;1.17;1.10;;;9.90;99.90;;;;;;5121503;27;20035;-87
2022/04/28 07:25:49;;;;;;;3.30;1.42;;;9.90;99.90;;;;;;5121110;27;20549;-87
2022/04/28 07:28:15;;;;;;;4.25;1.48;;;9.90;99.90;;;;;;5121317;27;20043;-87
2022/04/28 07:30:40;;;;;;;1.15;0.90;;;10.00;99.90;;;;;;5121139;27;20104;-87
2022/04/28 07:33:08;;;;;;;1.10;0.85;;;9.90;99.90;;;;;;5121169;27;20399;-88
2022/04/28 07:35:34;;;;;;;1.02;0.55;;;9.90;99.90;;;;;;5102688;27;20086;-87
2022/04/28 07:38:00;;;;;;;1.02;0.93;;;10.00;99.90;;;;;;5103239;27;20152;-88
2022/04/28 07:40:26;;;;;;;7.32;0.95;;;9.90;99.90;;;;;;5122074;27;20077;-87
2022/04/28 07:42:52;;;;;;;5.15;1.13;;;10.00;99.90;;;;;;5121248;27;20449;-87
2022/04/28 07:45:17;;;;;;;0.75;0.75;;;10.00;99.90;;;;;;5120442;27;20070;-88
2022/04/28 07:47:43;;;;;;;0.95;0.95;;;10.00;99.90;;;;;;5103163;27;20374;-87
2022/04/28 07:50:09;;;;;;;1.90;0.95;;;10.00;99.90;;;;;;5119417;27;20172;-87
2022/04/28 07:52:36;;;;;;;0.57;0.57;;;10.10;99.90;;;;;;5121552;27;20054;-88
2022/04/28 07:55:01;;;;;;;8.18;1.02;;;10.10;99.90;;;;;;5103090;27;20043;-87
2022/04/28 07:57:27;;;;;;;1.95;1.13;;;10.20;99.90;;;;;;5121887;27;20371;-86
2022/04/28 07:59:52;;;;;;;6.45;0.93;;;10.20;99.90;;;;;;5102907;27;20493;-78
2022/04/28 08:02:18;;;;;;;1.35;1.23;;;10.20;99.90;;;;;;5121941;27;20043;-78
2022/04/28 08:04:43;;;;;;;4.28;1.27;;;10.20;99.90;;;;;;5120524;27;20527;-77
2022/04/28 08:07:09;;;;;;;1.77;0.98;;;10.20;99.90;;;;;;5121941;27;20050;-77
2022/04/28 08:09:35;;;;;;;0.57;0.57;;;10.30;99.90;;;;;;5103302;28;20047;-77
2022/04/28 08:12:00;;;;;;;4.10;1.25;;;10.30;99.90;;;;;;5103246;28;20055;-78
2022/04/28 08:14:26;;;;;;;2.38;0.98;;;10.30;99.90;;;;;;5122224;27;20505;-78
2022/04/28 08:16:52;;;;;;;6.88;1.67;;;10.30;99.90;;;;;;5120684;28;20078;-78
2022/04/28 08:19:19;;;;;;;4.22;0.82;;;10.40;99.90;;;;;;5101350;28;20047;-78
2022/04/28 08:21:48;;;;;;;2.45;1.00;;;10.40;99.90;;;;;;5123568;27;20043;-78
2022/04/28 08:24:13;;;;;;;1.20;0.95;;;10.50;99.90;;;;;;5124792;27;20498;-78
2022/04/28 08:26:39;;;;;;;0.80;0.70;;;10.50;99.90;;;;;;5125370;27;20126;-78
2022/04/28 08:29:05;;;;;;;1.15;1.05;;;10.50;99.90;;;;;;5124834;27;20039;-83
2022/04/28 08:31:31;;;;;;;1.90;1.23;;;10.50;99.90;;;;;;5124891;27;20409;-79
2022/04/28 08:33:57;;;;;;;1.35;1.10;;;10.60;99.90;;;;;;5125264;27;20043;-82
2022/04/28 08:36:22;;;;;;;0.68;0.68;;;10.60;99.90;;;;;;5125578;27;20047;-81
2022/04/28 08:38:48;;;;;;;2.22;1.33;;;10.60;99.90;;;;;;5126308;27;20067;-86
2022/04/28 08:41:27;;;;;;;5.32;1.80;;;10.60;99.90;;;;;;5124633;27;20046;-85
2022/04/28 08:43:53;;;;;;;0.55;0.55;;;10.60;99.90;;;;;;5125687;27;20115;-85
2022/04/28 08:49:05;;;;;;;0.95;0.95;;;10.60;99.90;;;;;;5124460;27;20043;-85
2022/04/28 08:51:33;;;;;;;0.88;0.88;;;10.60;99.90;;;;;;5125855;27;20039;-79
2022/04/28 08:54:00;;;;;;;10.55;1.25;;;10.60;99.90;;;;;;5125712;27;20039;-87
2022/04/28 08:56:25;;;;;;;1.23;1.10;;;10.70;99.90;;;;;;5125897;27;20074;-84
2022/04/28 08:58:53;;;;;;;1.25;1.15;;;10.70;99.90;;;;;;5125234;27;20126;-86
2022/04/28 09:01:27;;;;;;;1.50;1.40;;;10.70;99.90;;;;;;5123546;27;20039;-85
2022/04/28 09:03:57;;;;;;;4.95;2.28;;;10.70;99.90;;;;;;5123408;27;20048;-85
2022/04/28 09:06:29;;;;;;;2.53;1.58;;;10.70;99.90;;;;;;5123989;27;20051;-85
2022/04/28 09:08:55;;;;;;;11.55;1.88;;;10.80;99.90;;;;;;5124721;27;20449;-85
2022/04/28 09:11:26;;;;;;;3.03;1.42;;;10.70;99.90;;;;;;5123920;27;20138;-85
2022/04/28 09:14:09;;;;;;;5.63;1.67;;;10.70;99.90;;;;;;5120974;27;20055;-84
2022/04/28 09:16:35;;;;;;;5.85;1.25;;;10.70;99.90;;;;;;5124347;27;20436;-85
2022/04/28 09:19:01;;;;;;;4.18;1.42;;;10.70;99.90;;;;;;5122847;27;20073;-87
2022/04/28 09:21:27;;;;;;;1.27;1.10;;;10.70;99.90;;;;;;5125435;27;20087;-87
2022/04/28 09:23:54;;;;;;;7.25;1.65;;;10.70;99.90;;;;;;5125240;27;20126;-87
2022/04/28 09:26:23;;;;;;;2.10;1.60;;;10.70;99.90;;;;;;5124474;27;20122;-87
2022/04/28 09:28:49;;;;;;;2.97;1.58;;;10.80;99.90;;;;;;5108439;27;20106;-87
2022/04/28 09:31:18;;;;;;;3.58;1.48;;;10.80;99.90;;;;;;5119808;27;20118;-86
2022/04/28 09:33:46;;;;;;;1.00;1.00;;;10.80;99.90;;;;;;5119624;27;20085;-86
2022/04/28 09:36:14;;;;;;;12.25;2.88;;;10.80;99.90;;;;;;5123045;27;20043;-86
2022/04/28 09:38:39;;;;;;;1.58;1.15;;;10.80;99.90;;;;;;5123115;27;20039;-86
2022/04/28 09:43:57;;;;;;;1.25;0.88;;;10.90;99.90;;;;;;5120258;27;20046;-85
2022/04/28 09:46:23;;;;;;;0.68;0.68;;;10.90;99.90;;;;;;5123401;27;20801;-86
2022/04/28 09:48:51;;;;;;;0.82;0.82;;;10.90;99.90;;;;;;5122762;27;20534;-86
2022/04/28 09:51:23;;;;;;;7.90;2.20;;;10.90;99.90;;;;;;5120612;27;20079;-86
2022/04/28 09:53:51;;;;;;;2.15;1.30;;;10.90;99.90;;;;;;5125222;27;20039;-87
2022/04/28 09:56:20;;;;;;;1.20;1.08;;;11.00;99.90;;;;;;5113898;27;20055;-87
2022/04/28 09:58:46;;;;;;;2.45;1.05;;;11.00;99.90;;;;;;5119706;27;20043;-85
2022/04/28 10:01:13;;;;;;;3.83;1.88;;;11.10;99.90;;;;;;5102275;27;20031;-85
2022/04/28 10:03:40;;;;;;;2.83;1.83;;;11.10;99.90;;;;;;5121483;27;20086;-86
2022/04/28 10:06:07;;;;;;;0.85;0.70;;;11.10;99.90;;;;;;5101846;27;20079;-85
2022/04/28 10:08:34;;;;;;;1.48;1.02;;;11.20;99.90;;;;;;5122197;27;20046;-85
2022/04/28 10:11:03;;;;;;;1.08;1.02;;;11.20;99.90;;;;;;5122181;27;20134;-86
2022/04/28 10:13:30;;;;;;;1.40;1.05;;;11.20;99.90;;;;;;5122961;27;20043;-86
2022/04/28 10:15:59;;;;;;;2.88;1.92;;;11.20;99.90;;;;;;5124003;27;20085;-84
2022/04/28 10:18:37;;;;;;;3.15;1.08;;;11.20;99.90;;;;;;5122607;27;20039;-86
2022/04/28 10:21:05;;;;;;;6.07;1.30;;;11.30;99.90;;;;;;5104929;27;20489;-86
2022/04/28 10:34:58;;;;;;;2.95;1.58;;;11.20;99.90;;;;;;5104658;27;20043;-82
2022/04/28 10:37:33;;;;;;;4.25;1.17;;;11.30;99.90;;;;;;5123510;27;20111;-82
2022/04/28 10:39:59;;;;;;;3.92;1.48;;;11.30;99.90;;;;;;5124146;27;20400;-82
2022/04/28 10:42:47;;;;;;;1.42;1.38;;;11.30;99.90;;;;;;5123158;27;20035;-82
2022/04/28 10:45:19;;;;;;;2.97;2.08;;;11.30;99.90;;;;;;5104423;27;20097;-82
2022/04/28 10:47:45;;;;;;;4.57;1.15;;;11.40;99.90;;;;;;5123457;27;20049;-82
2022/04/28 10:50:22;;;;;;;2.05;1.95;;;11.40;99.90;;;;;;5104091;27;20704;-82
2022/04/28 10:52:55;;;;;;;2.38;1.40;;;11.40;99.90;;;;;;5123152;27;20103;-82
2022/04/28 10:55:23;;;;;;;2.72;1.85;;;11.50;99.90;;;;;;5123378;27;20043;-80
2022/04/28 10:57:49;;;;;;;7.80;1.77;;;11.50;99.90;;;;;;5104819;27;20074;-79
2022/04/28 11:00:33;;;;;;;1.30;1.13;;;11.50;99.90;;;;;;5123220;27;20078;-78
2022/04/28 11:02:59;;;;;;;1.52;1.30;;;11.50;99.90;;;;;;5102402;27;20088;-81
2022/04/28 11:05:30;;;;;;;3.08;0.90;;;11.50;99.90;;;;;;5122093;27;20057;-83
2022/04/28 11:07:59;;;;;;;1.67;1.57;;;11.50;99.90;;;;;;5120214;27;20035;-83
2022/04/28 11:10:25;;;;;;;1.80;1.13;;;11.50;99.90;;;;;;5102597;27;20035;-79
2022/04/28 11:12:51;;;;;;;1.20;1.10;;;11.40;99.90;;;;;;5127801;27;20054;-79
2022/04/28 11:15:17;;;;;;;2.30;1.33;;;11.40;99.90;;;;;;5133624;27;20107;-77
2022/04/28 11:17:44;;;;;;;3.08;1.65;;;11.50;99.90;;;;;;5143570;27;20039;-79
2022/04/28 11:20:14;;;;;;;0.70;0.70;;;11.50;99.90;;;;;;5141488;27;20057;-78
2022/04/28 11:22:41;;;;;;;2.65;1.48;;;11.50;99.90;;;;;;5143195;27;20176;-78
2022/04/28 11:25:12;;;;;;;9.98;1.63;;;11.60;99.90;;;;;;5143232;27;20507;-78
2022/04/28 11:27:43;;;;;;;0.88;0.88;;;11.60;99.90;;;;;;5137299;27;20117;-84
2022/04/28 11:30:14;;;;;;;2.10;1.17;;;11.60;99.90;;;;;;5121088;27;20096;-80
2022/04/28 11:32:51;;;;;;;1.73;0.85;;;11.60;99.90;;;;;;5104319;27;20054;-84
2022/04/28 11:35:20;;;;;;;2.20;1.77;;;11.60;99.90;;;;;;5120557;27;20054;-80
2022/04/28 11:37:48;;;;;;;2.05;1.08;;;11.70;99.90;;;;;;5128953;27;20070;-82
2022/04/28 11:40:16;;;;;;;4.10;1.10;;;11.70;99.90;;;;;;5121585;27;20082;-82
2022/04/28 11:42:42;;;;;;;10.73;1.92;;;11.70;99.90;;;;;;5117756;27;20035;-83
2022/04/28 11:45:09;;;;;;;2.83;1.05;;;11.70;99.90;;;;;;5128979;27;20491;-83
2022/04/28 11:47:45;;;;;;;1.42;1.42;;;11.60;99.90;;;;;;5138272;27;20122;-82
2022/04/28 11:50:22;;;;;;;14.35;1.30;;;11.70;99.90;;;;;;5128990;27;20043;-83
2022/04/28 11:53:05;;;;;;;3.70;1.05;;;11.70;99.90;;;;;;5122333;27;20043;-83
2022/04/28 11:55:35;;;;;;;3.03;1.05;;;11.70;99.90;;;;;;5135741;27;20042;-80
2022/04/28 11:58:01;;;;;;;8.38;1.30;;;11.70;99.90;;;;;;5142772;27;20039;-82
2022/04/28 12:00:27;;;;;;;1.55;1.45;;;11.70;99.90;;;;;;5138320;27;20057;-80
2022/04/28 12:02:54;;;;;;;4.35;1.40;;;11.70;99.90;;;;;;5121286;27;20035;-85
2022/04/28 12:05:23;;;;;;;7.47;1.52;;;11.80;99.90;;;;;;5121443;27;20036;-81
2022/04/28 12:07:52;;;;;;;0.90;0.90;;;11.80;99.90;;;;;;5122178;27;20035;-81
2022/04/28 12:16:16;;;;;;;1.58;1.45;;;11.70;99.90;;;;;;5087635;27;20135;-81
2022/04/28 12:21:37;;;;;;;0.88;0.88;;;11.70;99.90;;;;;;5100314;28;20046;-85
2022/04/28 12:24:14;;;;;;;1.13;1.05;;;11.80;99.90;;;;;;5117259;28;20122;-82
2022/04/28 12:26:45;;;;;;;1.25;1.25;;;11.70;99.90;;;;;;5120486;27;20067;-80
2022/04/28 12:29:12;;;;;;;2.00;1.58;;;11.70;99.90;;;;;;5122543;27;20043;-81
2022/04/28 12:31:39;;;;;;;16.70;2.40;;;11.70;99.90;;;;;;5119772;28;20047;-81
2022/04/28 12:34:22;;;;;;;3.88;1.63;;;11.70;99.90;;;;;;5119304;28;20027;-81
2022/04/28 12:36:58;;;;;;;1.45;1.35;;;11.70;99.90;;;;;;5117397;28;20031;-80
2022/04/28 12:39:27;;;;;;;5.78;1.42;;;11.80;99.90;;;;;;5119903;28;20052;-79
2022/04/28 12:41:53;;;;;;;1.23;1.20;;;11.70;99.90;;;;;;5119739;27;20404;-92
2022/04/28 12:44:22;;;;;;;3.78;1.27;;;11.80;99.90;;;;;;5085151;28;20039;-83
2022/04/28 12:46:49;;;;;;;4.25;1.73;;;11.80;99.90;;;;;;5121297;28;20379;-81
2022/04/28 12:49:16;;;;;;;1.27;0.90;;;11.80;99.90;;;;;;5119492;28;20481;-81
2022/04/28 12:51:56;;;;;;;1.70;1.52;;;11.80;99.90;;;;;;5102745;27;20050;-82
2022/04/28 12:54:27;;;;;;;1.98;0.95;;;11.80;99.90;;;;;;5120826;28;20035;-82
2022/04/28 12:56:54;;;;;;;1.53;1.40;;;11.80;99.90;;;;;;5121056;28;20055;-82
2022/04/28 12:59:21;;;;;;;3.95;1.65;;;11.80;99.90;;;;;;5116921;27;20372;-84
2022/04/28 13:01:48;;;;;;;1.58;1.48;;;11.80;99.90;;;;;;5132953;27;20050;-87
2022/04/28 13:04:40;;;;;;;1.25;1.20;;;11.90;99.90;;;;;;5100579;28;20047;-88
2022/04/28 13:07:09;;;;;;;2.10;1.15;;;11.90;99.90;;;;;;5110646;27;20051;-87
2022/04/28 13:09:37;;;;;;;3.92;1.35;;;11.90;99.90;;;;;;5123685;27;20042;-88
2022/04/28 13:12:03;;;;;;;2.47;1.85;;;11.90;99.90;;;;;;5122984;27;20051;-85
2022/04/28 13:14:32;;;;;;;1.40;1.30;;;11.90;99.90;;;;;;5105270;27;20103;-89
2022/04/28 13:16:58;;;;;;;1.00;1.00;;;11.80;99.90;;;;;;5121841;27;20115;-85
2022/04/28 13:19:23;;;;;;;1.30;1.00;;;11.90;99.90;;;;;;5123276;27;20489;-85
2022/04/28 13:21:50;;;;;;;4.13;1.15;;;11.90;99.90;;;;;;5123998;27;20043;-86
2022/04/28 13:24:17;;;;;;;3.53;1.35;;;11.90;99.90;;;;;;5104399;27;20255;-86
2022/04/28 13:26:43;;;;;;;5.35;1.45;;;11.90;99.90;;;;;;5123727;27;20051;-87
2022/04/28 13:29:09;;;;;;;1.10;1.10;;;11.90;99.90;;;;;;5123044;27;20042;-85
2022/04/28 13:31:37;;;;;;;3.78;1.20;;;11.90;99.90;;;;;;5123746;27;20115;-85